Latest Aviation Weather Report (METAR)

METAR VMMC 192200Z 11014KT 9000 FEW006 SCT022 24/23 Q1006 NOSIG=

Decoded METAR in plain language
Contents of Report Code Information
Report Type METAR Aviation Routine Weather Report
Location VMMC Macao, China
Time of the Observation 192200Z 19/04/2019 22:00:00 UTC
Surface Wind Direction and Speed 11014KT mean direction 110 degrees, speed 14 knots
Visibility 9000 9 kilometres
Present Weather    
Cloud FEW006 SCT022 amount 1-2 oktas; base 600 feet
amount 3-4 oktas; base 2200 feet
Air Temperature and Dew-Point Temperature 24/23 air temperature 24°C
dew point temperature 23°C
Pressure (QNH) Q1006 1006 hPa
Trend Forecasts During Next Two Hours NOSIG no significant changes

OTHER INTERNATIONAL AIRPORTS:
Weather Forecast (TAF)   Weather Report (METAR)